Etihad Airways Virtual Airport Information Service

Abu Dhabi International Airport

ICAO: OMAA Country: United Arab Emirates
Latitude: 24.433 Longitude: 54.6511
Latest Arrival : ETD461 (YMML-OMAA) Latest Departure : ETD315 (OMAA-OERK)


WX CaptureLIVE
Data provided by noaa.gov | Recorded at 17:37:11

METAR : OMAA 181700Z 33005KT 210V010 7000 NSC 21/18 Q1016 NOSIG

TAF : OMAA 181100Z 1812/1918 31010KT CAVOK BECMG 1820/1822 VRB02KT PROB40 1822/1906 3000 BR PROB30 1901/1905 0200 FG VV/// BECMG 1906/1908 32012KT


Runway Data for OMAA
Data provided by openaviationdata.com

Runway ID Mag Var Hdg Length Elevation Surface ILS Freq ILS Id ILS Slope

Abu Dhabi International Airport, United Arab Emirates
Use only for reference purposes